Pryor, Oklahoma
Current Conditions -  °F | °C
As of 7:15 AM on Sunday 21 Dec 2014 (Local Time) from KGCM Reporting Station
Haze Haze  
Wind Chill: 39°   Ceiling: 200
Heat Index: 43°   Visibility: 2.5mi
Dew Point: 41°   Wind: 7mph
Humidity: 93%   Direction: 180°S
Pressure: 30.12"   Gusts: NA
Location:  36.31°N, 95.32°W
Report Text: KGCM 211315Z AUTO 18006KT 2 1/2SM BR OVC002 06/05 A3012 RMK AO2
Loading
Personal Weather Stations






























Interactive Weather Map New forecast layout! Learn more

10-Day Weather Forecast

Advertisements
Track Severe Weather on mobile